Abbott Park, Illinois
Current Conditions -  °F | °C
As of 3:55 PM on Monday 24 Nov 2014 (Local Time) from KUGN Reporting Station
Light Snow Light Snow  
Wind Chill: 19°   Ceiling: 1900
Heat Index: 28°   Visibility: 1.2mi
Dew Point: 24°   Wind: 10mph
Humidity: 85%   Direction: 240°WSW
Pressure: 29.47"   Gusts: 31mph
Location:  42.3271°N, 87.865°W
Report Text: KUGN 242155Z 24009G27KT 210V280 1 1/4SM -SN BR SCT014 BKN019 OVC046 M02/M04 A2947 RMK AO2 PK WND 21029/2110 SLP986 P0000 T10221044
Loading
Personal Weather Stations






























Interactive Weather Map New forecast layout! Learn more

10-Day Weather Forecast

Advertisements
Track Severe Weather on mobile